createdAt,value
2022-10-02T00:00:14.744Z,13.1
2022-10-02T00:06:04.815Z,13
2022-10-02T00:11:54.694Z,13.1
2022-10-02T00:17:45.060Z,13.1
2022-10-02T00:23:34.885Z,13.1
2022-10-02T00:29:24.747Z,13.2
2022-10-02T00:35:15.900Z,13.3
2022-10-02T00:41:10.058Z,13.2
2022-10-02T00:47:02.892Z,13.5
2022-10-02T00:52:52.589Z,13.4
2022-10-02T00:58:42.286Z,13.3
2022-10-02T01:04:33.080Z,13.4
2022-10-02T01:10:24.559Z,13.3
2022-10-02T01:16:14.166Z,13.3
2022-10-02T01:22:03.852Z,13.4
2022-10-02T01:27:53.401Z,13.4
2022-10-02T01:33:44.980Z,13.4
2022-10-02T01:39:34.796Z,13.4
2022-10-02T01:45:25.179Z,13.5
2022-10-02T01:51:15.122Z,13.5
2022-10-02T01:57:11.364Z,13.5
2022-10-02T02:03:01.162Z,13.5
2022-10-02T02:08:51.946Z,13.5
2022-10-02T02:14:49.285Z,13.5
2022-10-02T02:20:38.674Z,13.5
2022-10-02T02:26:28.748Z,13.5
2022-10-02T02:32:19.166Z,13.6
2022-10-02T02:38:08.034Z,13.6
2022-10-02T02:43:58.266Z,13.6
2022-10-02T02:49:47.382Z,13.6
2022-10-02T02:55:39.287Z,13.6
2022-10-02T03:01:33.375Z,13.6
2022-10-02T03:07:23.637Z,13.6
2022-10-02T03:13:13.763Z,13.7
2022-10-02T03:19:03.582Z,13.7
2022-10-02T03:24:53.316Z,13.7
2022-10-02T03:30:43.112Z,13.7
2022-10-02T03:36:32.720Z,13.7
2022-10-02T03:42:23.865Z,13.8
2022-10-02T03:48:13.762Z,13.8
2022-10-02T03:54:03.110Z,13.8
2022-10-02T03:59:52.867Z,13.8
2022-10-02T04:05:42.018Z,13.8
2022-10-02T04:11:33.309Z,13.8
2022-10-02T04:17:22.998Z,13.8
2022-10-02T04:23:13.419Z,13.9
2022-10-02T04:29:05.293Z,13.9
2022-10-02T04:34:57.483Z,13.8
2022-10-02T10:43:03.351Z,15.9
2022-10-02T10:49:02.034Z,15.7
2022-10-02T10:54:52.426Z,15.9
2022-10-02T11:00:43.220Z,15.9
2022-10-02T11:06:35.473Z,15.9
2022-10-02T11:12:32.259Z,15.8
2022-10-02T11:18:22.816Z,15.7
2022-10-02T11:24:13.777Z,15.8
2022-10-02T11:30:05.739Z,15.8
2022-10-02T11:35:55.763Z,15.8
2022-10-02T11:41:46.818Z,15.6
2022-10-02T11:47:37.649Z,15.8
2022-10-02T11:53:28.498Z,15.8
2022-10-02T11:59:18.665Z,15.9
2022-10-02T12:05:07.739Z,16
2022-10-02T12:10:57.501Z,15.9
2022-10-02T12:16:47.779Z,15.9
2022-10-02T12:22:37.644Z,15.9
2022-10-02T12:28:27.512Z,16.2
2022-10-02T12:34:17.941Z,16
2022-10-02T12:40:08.007Z,16
2022-10-02T12:45:58.192Z,16.1
2022-10-02T12:51:49.194Z,16
2022-10-02T12:57:40.642Z,16.4
2022-10-02T13:03:32.552Z,16.4
2022-10-02T13:09:24.154Z,16.7
2022-10-02T13:15:24.129Z,16.6
2022-10-02T13:21:16.941Z,16.7
2022-10-02T13:27:07.529Z,16.6
2022-10-02T13:32:58.518Z,16.7
2022-10-02T13:38:49.592Z,16.6
2022-10-02T13:44:40.271Z,16.5
2022-10-02T13:50:31.519Z,16.5
2022-10-02T13:56:23.553Z,16.5
2022-10-02T14:02:18.165Z,16.6
2022-10-02T14:08:07.972Z,16.4
2022-10-02T14:14:03.328Z,16.4
2022-10-02T14:19:54.634Z,16.4
2022-10-02T14:25:45.273Z,16.6
2022-10-02T14:31:34.054Z,16.4
2022-10-02T14:37:28.541Z,16.3
2022-10-02T14:43:19.260Z,16.4
2022-10-02T14:49:10.117Z,16.3
2022-10-02T14:55:01.403Z,16.4
2022-10-02T15:00:51.777Z,16.4
2022-10-02T15:06:42.758Z,16.2
2022-10-02T15:12:33.421Z,16.2
2022-10-02T15:18:24.173Z,16.2
2022-10-02T15:24:15.282Z,16.2
2022-10-02T15:30:05.966Z,16.1
2022-10-02T15:35:57.011Z,16.1
2022-10-02T15:41:48.202Z,16
2022-10-02T15:47:39.099Z,15.9
2022-10-02T15:53:31.465Z,16
2022-10-02T15:59:22.494Z,16
2022-10-02T16:05:13.514Z,15.9
2022-10-02T16:11:05.431Z,15.9
2022-10-02T16:16:57.130Z,16
2022-10-02T16:22:48.634Z,15.9
2022-10-02T16:28:39.363Z,15.8
2022-10-02T16:34:31.545Z,15.7
2022-10-02T16:40:27.174Z,15.6
2022-10-02T16:46:19.770Z,15.6
2022-10-02T16:52:12.104Z,15.6
2022-10-02T16:58:02.795Z,15.5
2022-10-02T17:03:53.463Z,15.4
2022-10-02T17:09:44.212Z,15.4
2022-10-02T17:15:34.309Z,15.2
2022-10-02T17:21:25.051Z,15.1
2022-10-02T17:27:16.272Z,14.9
2022-10-02T17:33:08.330Z,14.9
2022-10-02T17:38:58.764Z,14.8
2022-10-02T17:44:49.350Z,14.7
2022-10-02T17:50:40.123Z,14.5
2022-10-02T17:56:31.466Z,14.5
2022-10-02T18:02:22.018Z,14.3
2022-10-02T18:08:15.010Z,14.4
2022-10-02T18:14:05.237Z,14.4
2022-10-02T18:19:55.717Z,14.3
2022-10-02T18:25:46.799Z,14.4
2022-10-02T18:31:54.427Z,14.3
2022-10-02T18:37:46.306Z,14.3
2022-10-02T18:43:37.829Z,14.1
2022-10-02T18:49:32.023Z,14.1
2022-10-02T18:55:22.190Z,14
2022-10-02T19:01:13.668Z,13.9
2022-10-02T19:07:05.206Z,13.9
2022-10-02T19:12:55.490Z,13.8
2022-10-02T19:18:45.916Z,13.8
2022-10-02T19:24:35.341Z,13.8
2022-10-02T19:30:26.736Z,13.8
2022-10-02T19:36:17.086Z,13.6
2022-10-02T19:42:08.954Z,13.6
2022-10-02T19:48:00.515Z,13.5
2022-10-02T19:53:51.933Z,13.4
2022-10-02T19:59:44.111Z,13.3
2022-10-02T20:05:34.619Z,13.3
2022-10-02T20:11:25.685Z,13.3
2022-10-02T20:17:18.191Z,13.4
2022-10-02T20:23:10.475Z,13.2
2022-10-02T20:29:01.818Z,13.3
2022-10-02T20:34:54.153Z,13.2
2022-10-02T20:40:45.251Z,13.1
2022-10-02T20:46:38.740Z,13.1
2022-10-02T20:52:37.411Z,13
2022-10-02T20:58:35.926Z,13
2022-10-02T21:04:31.009Z,12.9
2022-10-02T21:10:21.580Z,13
2022-10-02T21:16:19.311Z,13
2022-10-02T21:22:15.059Z,12.9
2022-10-02T21:28:25.625Z,13
2022-10-02T21:34:27.170Z,13.1
2022-10-02T21:40:20.004Z,13.1
2022-10-02T21:46:38.327Z,13.1
2022-10-02T21:52:30.960Z,13
2022-10-02T21:58:44.032Z,12.9
2022-10-02T22:04:35.955Z,12.9
2022-10-02T22:10:27.863Z,12.8
2022-10-02T22:16:19.264Z,12.7
2022-10-02T22:22:13.846Z,12.6
2022-10-02T22:28:09.015Z,12.5
2022-10-02T22:34:04.985Z,12.4
2022-10-02T22:39:56.756Z,12.5
2022-10-02T22:45:48.975Z,12.6
2022-10-02T22:51:43.633Z,12.5
2022-10-02T22:57:34.700Z,12.1
2022-10-02T23:03:26.195Z,12.3
2022-10-02T23:09:20.713Z,12.2
2022-10-02T23:15:11.353Z,12.2
2022-10-02T23:21:04.555Z,12
2022-10-02T23:26:59.786Z,12.3
2022-10-02T23:32:51.678Z,12.2
2022-10-02T23:38:41.579Z,12.1
2022-10-02T23:44:31.545Z,11.8
2022-10-02T23:50:24.373Z,12
2022-10-02T23:56:14.720Z,12
